sensor_id;sensor_type;location;lat;lon;timestamp;P1;durP1;ratioP1;P2;durP2;ratioP2
64667;SDS011;51077;42.716;23.344;2023-11-21T00:02:06;39.17;;;23.33;;
64667;SDS011;51077;42.716;23.344;2023-11-21T00:04:32;44.43;;;24.13;;
64667;SDS011;51077;42.716;23.344;2023-11-21T00:06:57;38.73;;;23.80;;
64667;SDS011;51077;42.716;23.344;2023-11-21T00:09:23;43.93;;;23.47;;
64667;SDS011;51077;42.716;23.344;2023-11-21T00:11:49;42.60;;;23.07;;
64667;SDS011;51077;42.716;23.344;2023-11-21T00:14:14;40.83;;;24.27;;
64667;SDS011;51077;42.716;23.344;2023-11-21T00:23:24;40.53;;;22.10;;
64667;SDS011;51077;42.716;23.344;2023-11-21T00:25:49;38.73;;;23.67;;
64667;SDS011;51077;42.716;23.344;2023-11-21T00:28:14;45.87;;;24.87;;
64667;SDS011;51077;42.716;23.344;2023-11-21T00:30:41;38.63;;;23.25;;
64667;SDS011;51077;42.716;23.344;2023-11-21T00:33:06;43.27;;;25.20;;
64667;SDS011;51077;42.716;23.344;2023-11-21T00:35:32;43.33;;;24.75;;
64667;SDS011;51077;42.716;23.344;2023-11-21T00:37:57;40.17;;;23.63;;
64667;SDS011;51077;42.716;23.344;2023-11-21T00:40:23;44.25;;;25.23;;
64667;SDS011;51077;42.716;23.344;2023-11-21T00:42:49;46.38;;;24.92;;
64667;SDS011;51077;42.716;23.344;2023-11-21T00:45:15;45.30;;;24.43;;
64667;SDS011;51077;42.716;23.344;2023-11-21T00:47:40;42.00;;;24.90;;
64667;SDS011;51077;42.716;23.344;2023-11-21T00:50:07;46.92;;;25.88;;
64667;SDS011;51077;42.716;23.344;2023-11-21T00:52:33;45.47;;;27.02;;
64667;SDS011;51077;42.716;23.344;2023-11-21T00:54:59;44.90;;;26.17;;
64667;SDS011;51077;42.716;23.344;2023-11-21T00:57:25;46.25;;;26.80;;
64667;SDS011;51077;42.716;23.344;2023-11-21T00:59:51;43.97;;;26.60;;
64667;SDS011;51077;42.716;23.344;2023-11-21T01:02:17;47.53;;;26.70;;
64667;SDS011;51077;42.716;23.344;2023-11-21T01:04:42;47.97;;;26.00;;
64667;SDS011;51077;42.716;23.344;2023-11-21T01:07:08;48.40;;;27.65;;
64667;SDS011;51077;42.716;23.344;2023-11-21T01:09:34;47.70;;;28.17;;
64667;SDS011;51077;42.716;23.344;2023-11-21T01:11:59;48.23;;;28.10;;
64667;SDS011;51077;42.716;23.344;2023-11-21T01:14:25;49.55;;;27.98;;
64667;SDS011;51077;42.716;23.344;2023-11-21T01:16:51;46.03;;;26.38;;
64667;SDS011;51077;42.716;23.344;2023-11-21T01:19:17;46.87;;;27.30;;
64667;SDS011;51077;42.716;23.344;2023-11-21T01:21:43;49.03;;;27.70;;
64667;SDS011;51077;42.716;23.344;2023-11-21T01:24:08;51.20;;;28.93;;
64667;SDS011;51077;42.716;23.344;2023-11-21T01:26:34;49.27;;;28.07;;
64667;SDS011;51077;42.716;23.344;2023-11-21T01:28:59;48.33;;;28.17;;
64667;SDS011;51077;42.716;23.344;2023-11-21T01:31:25;51.43;;;28.43;;
64667;SDS011;51077;42.716;23.344;2023-11-21T01:33:54;48.35;;;26.98;;
64667;SDS011;51077;42.716;23.344;2023-11-21T01:36:20;50.85;;;28.85;;
64667;SDS011;51077;42.716;23.344;2023-11-21T01:38:46;51.33;;;28.25;;
64667;SDS011;51077;42.716;23.344;2023-11-21T01:41:13;48.08;;;28.05;;
64667;SDS011;51077;42.716;23.344;2023-11-21T01:43:39;49.30;;;27.45;;
64667;SDS011;51077;42.716;23.344;2023-11-21T01:46:05;49.60;;;27.67;;
64667;SDS011;51077;42.716;23.344;2023-11-21T01:48:31;48.83;;;27.45;;
64667;SDS011;51077;42.716;23.344;2023-11-21T01:50:57;45.75;;;26.52;;
64667;SDS011;51077;42.716;23.344;2023-11-21T01:53:26;48.70;;;28.10;;
64667;SDS011;51077;42.716;23.344;2023-11-21T01:55:53;52.08;;;27.33;;
64667;SDS011;51077;42.716;23.344;2023-11-21T01:58:21;47.17;;;27.13;;
64667;SDS011;51077;42.716;23.344;2023-11-21T02:00:47;48.45;;;27.73;;
64667;SDS011;51077;42.716;23.344;2023-11-21T02:03:16;54.63;;;27.65;;
64667;SDS011;51077;42.716;23.344;2023-11-21T02:05:41;50.47;;;28.05;;
64667;SDS011;51077;42.716;23.344;2023-11-21T02:08:07;48.13;;;27.20;;
64667;SDS011;51077;42.716;23.344;2023-11-21T02:10:34;47.88;;;27.05;;
64667;SDS011;51077;42.716;23.344;2023-11-21T02:13:02;47.42;;;28.45;;
64667;SDS011;51077;42.716;23.344;2023-11-21T02:15:27;48.38;;;27.35;;
64667;SDS011;51077;42.716;23.344;2023-11-21T02:17:54;47.30;;;26.55;;
64667;SDS011;51077;42.716;23.344;2023-11-21T02:20:23;48.38;;;27.00;;
64667;SDS011;51077;42.716;23.344;2023-11-21T02:22:53;47.22;;;25.52;;
64667;SDS011;51077;42.716;23.344;2023-11-21T02:25:26;46.40;;;26.15;;
64667;SDS011;51077;42.716;23.344;2023-11-21T02:28:04;43.45;;;24.27;;
64667;SDS011;51077;42.716;23.344;2023-11-21T02:30:31;42.97;;;23.73;;
64667;SDS011;51077;42.716;23.344;2023-11-21T02:32:57;47.13;;;25.77;;
64667;SDS011;51077;42.716;23.344;2023-11-21T02:35:23;38.83;;;23.53;;
64667;SDS011;51077;42.716;23.344;2023-11-21T02:37:50;40.50;;;22.50;;
64667;SDS011;51077;42.716;23.344;2023-11-21T02:40:16;43.92;;;24.92;;
64667;SDS011;51077;42.716;23.344;2023-11-21T02:42:46;42.20;;;23.50;;
64667;SDS011;51077;42.716;23.344;2023-11-21T02:45:23;43.15;;;22.95;;
64667;SDS011;51077;42.716;23.344;2023-11-21T02:47:49;40.53;;;22.27;;
64667;SDS011;51077;42.716;23.344;2023-11-21T02:50:15;37.50;;;21.93;;
64667;SDS011;51077;42.716;23.344;2023-11-21T02:52:40;33.93;;;20.67;;
64667;SDS011;51077;42.716;23.344;2023-11-21T02:55:06;40.53;;;21.47;;
64667;SDS011;51077;42.716;23.344;2023-11-21T02:57:34;38.25;;;21.02;;
64667;SDS011;51077;42.716;23.344;2023-11-21T03:00:00;39.27;;;21.97;;
64667;SDS011;51077;42.716;23.344;2023-11-21T03:02:26;38.43;;;20.17;;
64667;SDS011;51077;42.716;23.344;2023-11-21T03:04:51;38.53;;;20.50;;
64667;SDS011;51077;42.716;23.344;2023-11-21T03:07:17;34.20;;;20.47;;
64667;SDS011;51077;42.716;23.344;2023-11-21T03:09:46;35.20;;;20.77;;
64667;SDS011;51077;42.716;23.344;2023-11-21T03:12:12;34.63;;;19.23;;
64667;SDS011;51077;42.716;23.344;2023-11-21T03:14:39;33.80;;;20.07;;
64667;SDS011;51077;42.716;23.344;2023-11-21T03:17:04;29.52;;;18.52;;
64667;SDS011;51077;42.716;23.344;2023-11-21T03:19:30;32.67;;;18.73;;
64667;SDS011;51077;42.716;23.344;2023-11-21T03:21:56;31.67;;;19.00;;
64667;SDS011;51077;42.716;23.344;2023-11-21T03:24:21;32.03;;;19.13;;
64667;SDS011;51077;42.716;23.344;2023-11-21T03:26:48;35.88;;;19.20;;
64667;SDS011;51077;42.716;23.344;2023-11-21T03:29:14;32.50;;;19.33;;
64667;SDS011;51077;42.716;23.344;2023-11-21T03:31:40;28.30;;;17.53;;
64667;SDS011;51077;42.716;23.344;2023-11-21T03:34:06;33.40;;;18.88;;
64667;SDS011;51077;42.716;23.344;2023-11-21T03:36:31;31.83;;;19.27;;
64667;SDS011;51077;42.716;23.344;2023-11-21T03:38:57;34.10;;;19.17;;
64667;SDS011;51077;42.716;23.344;2023-11-21T03:41:22;31.03;;;18.00;;
64667;SDS011;51077;42.716;23.344;2023-11-21T03:43:48;29.87;;;18.00;;
64667;SDS011;51077;42.716;23.344;2023-11-21T03:46:13;31.67;;;18.43;;
64667;SDS011;51077;42.716;23.344;2023-11-21T03:48:39;29.42;;;16.95;;
64667;SDS011;51077;42.716;23.344;2023-11-21T03:51:05;32.77;;;17.27;;
64667;SDS011;51077;42.716;23.344;2023-11-21T03:53:31;30.83;;;17.85;;
64667;SDS011;51077;42.716;23.344;2023-11-21T03:55:57;31.43;;;18.73;;
64667;SDS011;51077;42.716;23.344;2023-11-21T03:58:22;29.97;;;16.60;;
64667;SDS011;51077;42.716;23.344;2023-11-21T04:00:48;28.27;;;17.10;;
64667;SDS011;51077;42.716;23.344;2023-11-21T04:03:16;26.88;;;16.85;;
64667;SDS011;51077;42.716;23.344;2023-11-21T04:05:41;31.07;;;17.60;;
64667;SDS011;51077;42.716;23.344;2023-11-21T04:08:07;31.03;;;17.33;;
64667;SDS011;51077;42.716;23.344;2023-11-21T04:10:33;28.97;;;17.17;;
64667;SDS011;51077;42.716;23.344;2023-11-21T04:12:58;28.93;;;17.67;;
64667;SDS011;51077;42.716;23.344;2023-11-21T04:15:25;26.80;;;15.68;;
64667;SDS011;51077;42.716;23.344;2023-11-21T04:17:51;31.70;;;17.27;;
64667;SDS011;51077;42.716;23.344;2023-11-21T04:20:17;29.98;;;16.75;;
64667;SDS011;51077;42.716;23.344;2023-11-21T04:22:43;26.37;;;15.97;;
64667;SDS011;51077;42.716;23.344;2023-11-21T04:25:10;26.80;;;16.15;;
64667;SDS011;51077;42.716;23.344;2023-11-21T04:27:37;24.95;;;15.02;;
64667;SDS011;51077;42.716;23.344;2023-11-21T04:30:04;25.75;;;15.40;;
64667;SDS011;51077;42.716;23.344;2023-11-21T04:32:30;30.02;;;15.95;;
64667;SDS011;51077;42.716;23.344;2023-11-21T04:34:55;32.73;;;17.10;;
64667;SDS011;51077;42.716;23.344;2023-11-21T04:37:21;25.03;;;16.03;;
64667;SDS011;51077;42.716;23.344;2023-11-21T04:39:47;28.88;;;15.05;;
64667;SDS011;51077;42.716;23.344;2023-11-21T04:42:15;24.00;;;15.05;;
64667;SDS011;51077;42.716;23.344;2023-11-21T04:44:43;24.93;;;14.87;;
64667;SDS011;51077;42.716;23.344;2023-11-21T04:47:11;30.23;;;15.57;;
64667;SDS011;51077;42.716;23.344;2023-11-21T04:49:37;24.70;;;15.40;;
64667;SDS011;51077;42.716;23.344;2023-11-21T04:52:02;25.77;;;15.30;;
64667;SDS011;51077;42.716;23.344;2023-11-21T04:54:30;28.02;;;15.65;;
64667;SDS011;51077;42.716;23.344;2023-11-21T04:56:56;28.23;;;16.13;;
64667;SDS011;51077;42.716;23.344;2023-11-21T04:59:21;24.10;;;14.87;;
64667;SDS011;51077;42.716;23.344;2023-11-21T05:01:52;24.05;;;14.32;;
64667;SDS011;51077;42.716;23.344;2023-11-21T05:04:18;25.52;;;14.07;;
64667;SDS011;51077;42.716;23.344;2023-11-21T05:06:44;25.07;;;15.17;;
64667;SDS011;51077;42.716;23.344;2023-11-21T05:09:09;23.73;;;15.43;;
64667;SDS011;51077;42.716;23.344;2023-11-21T05:11:37;25.05;;;14.70;;
64667;SDS011;51077;42.716;23.344;2023-11-21T05:14:04;28.25;;;15.95;;
64667;SDS011;51077;42.716;23.344;2023-11-21T05:16:30;25.35;;;13.88;;
64667;SDS011;51077;42.716;23.344;2023-11-21T05:18:56;21.73;;;14.00;;
64667;SDS011;51077;42.716;23.344;2023-11-21T05:21:26;25.92;;;16.17;;
64667;SDS011;51077;42.716;23.344;2023-11-21T05:23:52;26.15;;;15.02;;
64667;SDS011;51077;42.716;23.344;2023-11-21T05:26:17;24.90;;;15.27;;
64667;SDS011;51077;42.716;23.344;2023-11-21T05:28:43;22.87;;;14.67;;
64667;SDS011;51077;42.716;23.344;2023-11-21T05:31:08;22.60;;;14.53;;
64667;SDS011;51077;42.716;23.344;2023-11-21T05:33:34;30.70;;;17.03;;
64667;SDS011;51077;42.716;23.344;2023-11-21T05:35:59;23.40;;;13.53;;
64667;SDS011;51077;42.716;23.344;2023-11-21T05:38:25;21.53;;;14.30;;
64667;SDS011;51077;42.716;23.344;2023-11-21T05:40:50;27.23;;;15.68;;
64667;SDS011;51077;42.716;23.344;2023-11-21T05:43:16;26.33;;;14.70;;
64667;SDS011;51077;42.716;23.344;2023-11-21T05:45:42;27.67;;;15.67;;
64667;SDS011;51077;42.716;23.344;2023-11-21T05:48:07;26.93;;;15.50;;
64667;SDS011;51077;42.716;23.344;2023-11-21T05:50:32;30.97;;;16.40;;
64667;SDS011;51077;42.716;23.344;2023-11-21T05:52:58;28.60;;;15.67;;
64667;SDS011;51077;42.716;23.344;2023-11-21T05:55:28;28.83;;;16.67;;
64667;SDS011;51077;42.716;23.344;2023-11-21T05:57:53;27.90;;;17.40;;
64667;SDS011;51077;42.716;23.344;2023-11-21T06:00:19;30.33;;;17.80;;
64667;SDS011;51077;42.716;23.344;2023-11-21T06:02:45;30.27;;;15.90;;
64667;SDS011;51077;42.716;23.344;2023-11-21T06:05:10;27.88;;;16.05;;
64667;SDS011;51077;42.716;23.344;2023-11-21T06:07:36;24.77;;;15.73;;
64667;SDS011;51077;42.716;23.344;2023-11-21T06:10:03;25.45;;;16.00;;
64667;SDS011;51077;42.716;23.344;2023-11-21T06:12:32;25.75;;;16.08;;
64667;SDS011;51077;42.716;23.344;2023-11-21T06:15:01;27.77;;;16.90;;
64667;SDS011;51077;42.716;23.344;2023-11-21T06:17:30;26.35;;;16.40;;
64667;SDS011;51077;42.716;23.344;2023-11-21T06:19:56;27.60;;;16.42;;
64667;SDS011;51077;42.716;23.344;2023-11-21T06:22:21;29.80;;;16.40;;
64667;SDS011;51077;42.716;23.344;2023-11-21T06:24:47;22.67;;;16.53;;
64667;SDS011;51077;42.716;23.344;2023-11-21T06:27:12;28.33;;;17.13;;
64667;SDS011;51077;42.716;23.344;2023-11-21T06:29:38;24.77;;;15.50;;
64667;SDS011;51077;42.716;23.344;2023-11-21T06:32:04;29.30;;;17.20;;
64667;SDS011;51077;42.716;23.344;2023-11-21T06:34:30;26.65;;;17.08;;
64667;SDS011;51077;42.716;23.344;2023-11-21T06:36:56;27.73;;;16.55;;
64667;SDS011;51077;42.716;23.344;2023-11-21T06:39:21;28.97;;;16.67;;
64667;SDS011;51077;42.716;23.344;2023-11-21T06:41:48;29.88;;;17.80;;
64667;SDS011;51077;42.716;23.344;2023-11-21T06:44:15;26.27;;;15.90;;
64667;SDS011;51077;42.716;23.344;2023-11-21T06:46:40;24.87;;;15.73;;
64667;SDS011;51077;42.716;23.344;2023-11-21T06:49:07;27.13;;;16.42;;
64667;SDS011;51077;42.716;23.344;2023-11-21T06:51:33;29.55;;;16.90;;
64667;SDS011;51077;42.716;23.344;2023-11-21T06:53:58;24.20;;;15.23;;
64667;SDS011;51077;42.716;23.344;2023-11-21T06:56:24;27.83;;;16.33;;
64667;SDS011;51077;42.716;23.344;2023-11-21T06:58:50;27.95;;;16.80;;
64667;SDS011;51077;42.716;23.344;2023-11-21T07:01:18;27.27;;;16.80;;
64667;SDS011;51077;42.716;23.344;2023-11-21T07:03:44;24.03;;;15.07;;
64667;SDS011;51077;42.716;23.344;2023-11-21T07:06:10;24.07;;;15.20;;
64667;SDS011;51077;42.716;23.344;2023-11-21T07:08:36;27.02;;;16.08;;
64667;SDS011;51077;42.716;23.344;2023-11-21T07:11:02;25.42;;;15.18;;
64667;SDS011;51077;42.716;23.344;2023-11-21T07:13:29;24.05;;;15.55;;
64667;SDS011;51077;42.716;23.344;2023-11-21T07:15:55;20.45;;;13.63;;
64667;SDS011;51077;42.716;23.344;2023-11-21T07:18:20;22.97;;;14.77;;
64667;SDS011;51077;42.716;23.344;2023-11-21T07:20:46;22.03;;;14.37;;
64667;SDS011;51077;42.716;23.344;2023-11-21T07:23:11;25.97;;;15.10;;
64667;SDS011;51077;42.716;23.344;2023-11-21T07:25:37;22.77;;;14.07;;
64667;SDS011;51077;42.716;23.344;2023-11-21T07:28:02;24.07;;;14.50;;
64667;SDS011;51077;42.716;23.344;2023-11-21T07:30:28;21.67;;;14.23;;
64667;SDS011;51077;42.716;23.344;2023-11-21T07:32:53;20.47;;;13.83;;
64667;SDS011;51077;42.716;23.344;2023-11-21T07:35:19;24.17;;;14.73;;
64667;SDS011;51077;42.716;23.344;2023-11-21T07:37:44;22.93;;;14.87;;
64667;SDS011;51077;42.716;23.344;2023-11-21T07:40:10;23.20;;;14.57;;
64667;SDS011;51077;42.716;23.344;2023-11-21T07:42:36;23.40;;;14.45;;
64667;SDS011;51077;42.716;23.344;2023-11-21T07:45:04;21.80;;;14.10;;
64667;SDS011;51077;42.716;23.344;2023-11-21T07:47:31;21.75;;;14.52;;
64667;SDS011;51077;42.716;23.344;2023-11-21T07:49:59;23.13;;;15.20;;
64667;SDS011;51077;42.716;23.344;2023-11-21T07:52:25;23.08;;;14.77;;
64667;SDS011;51077;42.716;23.344;2023-11-21T07:54:51;20.30;;;13.93;;
64667;SDS011;51077;42.716;23.344;2023-11-21T07:57:16;23.17;;;14.47;;
64667;SDS011;51077;42.716;23.344;2023-11-21T07:59:41;20.47;;;14.13;;
64667;SDS011;51077;42.716;23.344;2023-11-21T08:02:07;21.00;;;13.53;;
64667;SDS011;51077;42.716;23.344;2023-11-21T08:04:32;21.70;;;14.07;;
64667;SDS011;51077;42.716;23.344;2023-11-21T08:07:00;22.75;;;15.55;;
64667;SDS011;51077;42.716;23.344;2023-11-21T08:09:26;22.90;;;15.10;;
64667;SDS011;51077;42.716;23.344;2023-11-21T08:11:52;22.20;;;15.20;;
64667;SDS011;51077;42.716;23.344;2023-11-21T08:14:18;20.10;;;14.97;;
64667;SDS011;51077;42.716;23.344;2023-11-21T08:16:43;21.47;;;14.57;;
64667;SDS011;51077;42.716;23.344;2023-11-21T08:19:09;22.10;;;14.03;;
64667;SDS011;51077;42.716;23.344;2023-11-21T08:21:36;30.45;;;15.95;;
64667;SDS011;51077;42.716;23.344;2023-11-21T08:24:02;22.65;;;14.85;;
64667;SDS011;51077;42.716;23.344;2023-11-21T08:26:29;22.60;;;14.90;;
64667;SDS011;51077;42.716;23.344;2023-11-21T08:28:54;21.27;;;14.70;;
64667;SDS011;51077;42.716;23.344;2023-11-21T08:31:27;21.73;;;14.73;;
64667;SDS011;51077;42.716;23.344;2023-11-21T08:33:54;22.83;;;14.30;;
64667;SDS011;51077;42.716;23.344;2023-11-21T08:36:21;23.25;;;14.88;;
64667;SDS011;51077;42.716;23.344;2023-11-21T08:38:49;22.25;;;15.57;;
64667;SDS011;51077;42.716;23.344;2023-11-21T08:41:17;22.88;;;14.98;;
64667;SDS011;51077;42.716;23.344;2023-11-21T08:43:42;22.83;;;14.57;;
64667;SDS011;51077;42.716;23.344;2023-11-21T08:46:08;21.98;;;15.88;;
64667;SDS011;51077;42.716;23.344;2023-11-21T08:48:37;19.40;;;14.40;;
64667;SDS011;51077;42.716;23.344;2023-11-21T08:51:03;22.88;;;16.13;;
64667;SDS011;51077;42.716;23.344;2023-11-21T08:53:29;20.80;;;14.40;;
64667;SDS011;51077;42.716;23.344;2023-11-21T08:55:56;23.40;;;15.88;;
64667;SDS011;51077;42.716;23.344;2023-11-21T08:58:22;23.05;;;15.20;;
64667;SDS011;51077;42.716;23.344;2023-11-21T09:00:47;20.53;;;14.33;;
64667;SDS011;51077;42.716;23.344;2023-11-21T09:03:13;22.33;;;14.73;;
64667;SDS011;51077;42.716;23.344;2023-11-21T09:05:38;20.83;;;14.80;;
64667;SDS011;51077;42.716;23.344;2023-11-21T09:08:04;22.55;;;14.38;;
64667;SDS011;51077;42.716;23.344;2023-11-21T09:10:30;21.17;;;14.37;;
64667;SDS011;51077;42.716;23.344;2023-11-21T09:12:57;22.02;;;13.65;;
64667;SDS011;51077;42.716;23.344;2023-11-21T09:15:24;21.65;;;14.32;;
64667;SDS011;51077;42.716;23.344;2023-11-21T09:17:50;23.63;;;14.43;;
64667;SDS011;51077;42.716;23.344;2023-11-21T09:20:15;20.33;;;14.17;;
64667;SDS011;51077;42.716;23.344;2023-11-21T09:22:41;26.37;;;14.03;;
64667;SDS011;51077;42.716;23.344;2023-11-21T09:25:06;20.27;;;13.50;;
64667;SDS011;51077;42.716;23.344;2023-11-21T09:27:33;21.10;;;12.82;;
64667;SDS011;51077;42.716;23.344;2023-11-21T09:30:00;19.38;;;13.32;;
64667;SDS011;51077;42.716;23.344;2023-11-21T09:32:26;23.35;;;14.07;;
64667;SDS011;51077;42.716;23.344;2023-11-21T09:34:52;25.30;;;13.52;;
64667;SDS011;51077;42.716;23.344;2023-11-21T09:37:20;19.23;;;12.48;;
64667;SDS011;51077;42.716;23.344;2023-11-21T09:39:46;18.10;;;13.00;;
64667;SDS011;51077;42.716;23.344;2023-11-21T09:42:17;20.50;;;12.77;;
64667;SDS011;51077;42.716;23.344;2023-11-21T09:44:58;17.90;;;12.80;;
64667;SDS011;51077;42.716;23.344;2023-11-21T09:47:26;17.08;;;11.82;;
64667;SDS011;51077;42.716;23.344;2023-11-21T09:49:53;16.08;;;11.20;;
64667;SDS011;51077;42.716;23.344;2023-11-21T09:52:25;16.13;;;11.35;;
64667;SDS011;51077;42.716;23.344;2023-11-21T09:54:52;19.70;;;12.63;;
64667;SDS011;51077;42.716;23.344;2023-11-21T09:57:19;18.17;;;12.40;;
64667;SDS011;51077;42.716;23.344;2023-11-21T09:59:46;20.40;;;11.90;;
64667;SDS011;51077;42.716;23.344;2023-11-21T10:02:15;19.92;;;11.75;;
64667;SDS011;51077;42.716;23.344;2023-11-21T10:04:43;19.35;;;12.63;;
64667;SDS011;51077;42.716;23.344;2023-11-21T10:07:10;17.63;;;11.98;;
64667;SDS011;51077;42.716;23.344;2023-11-21T10:09:39;17.50;;;12.20;;
64667;SDS011;51077;42.716;23.344;2023-11-21T10:12:05;19.33;;;12.70;;
64667;SDS011;51077;42.716;23.344;2023-11-21T10:14:33;17.55;;;12.70;;
64667;SDS011;51077;42.716;23.344;2023-11-21T10:17:02;17.65;;;13.13;;
64667;SDS011;51077;42.716;23.344;2023-11-21T10:19:28;20.92;;;13.32;;
64667;SDS011;51077;42.716;23.344;2023-11-21T10:21:54;19.23;;;12.57;;
64667;SDS011;51077;42.716;23.344;2023-11-21T10:24:22;19.52;;;13.00;;
64667;SDS011;51077;42.716;23.344;2023-11-21T10:26:48;17.83;;;13.40;;
64667;SDS011;51077;42.716;23.344;2023-11-21T10:29:14;17.80;;;12.70;;
64667;SDS011;51077;42.716;23.344;2023-11-21T10:31:43;17.05;;;12.30;;
64667;SDS011;51077;42.716;23.344;2023-11-21T10:36:39;16.90;;;12.50;;
64667;SDS011;51077;42.716;23.344;2023-11-21T10:39:05;18.63;;;12.80;;
64667;SDS011;51077;42.716;23.344;2023-11-21T10:41:30;18.90;;;12.30;;
64667;SDS011;51077;42.716;23.344;2023-11-21T10:43:57;21.67;;;12.85;;
64667;SDS011;51077;42.716;23.344;2023-11-21T10:46:22;17.80;;;11.83;;
64667;SDS011;51077;42.716;23.344;2023-11-21T10:48:54;17.92;;;12.25;;
64667;SDS011;51077;42.716;23.344;2023-11-21T10:51:21;16.65;;;11.80;;
64667;SDS011;51077;42.716;23.344;2023-11-21T10:53:46;20.10;;;12.17;;
64667;SDS011;51077;42.716;23.344;2023-11-21T10:56:13;17.25;;;12.48;;
64667;SDS011;51077;42.716;23.344;2023-11-21T10:58:45;16.38;;;11.25;;
64667;SDS011;51077;42.716;23.344;2023-11-21T11:01:10;16.17;;;12.18;;
64667;SDS011;51077;42.716;23.344;2023-11-21T11:03:37;15.95;;;12.05;;
64667;SDS011;51077;42.716;23.344;2023-11-21T11:06:03;17.93;;;12.30;;
64667;SDS011;51077;42.716;23.344;2023-11-21T11:08:32;17.60;;;12.40;;
64667;SDS011;51077;42.716;23.344;2023-11-21T11:10:59;16.85;;;12.20;;
64667;SDS011;51077;42.716;23.344;2023-11-21T11:13:25;17.47;;;12.07;;
64667;SDS011;51077;42.716;23.344;2023-11-21T11:15:50;19.10;;;12.33;;
64667;SDS011;51077;42.716;23.344;2023-11-21T11:18:21;19.88;;;12.15;;
64667;SDS011;51077;42.716;23.344;2023-11-21T11:20:48;17.35;;;12.30;;
64667;SDS011;51077;42.716;23.344;2023-11-21T11:32:10;18.35;;;11.63;;
64667;SDS011;51077;42.716;23.344;2023-11-21T11:37:51;18.23;;;12.00;;
64667;SDS011;51077;42.716;23.344;2023-11-21T11:40:17;16.63;;;11.77;;
64667;SDS011;51077;42.716;23.344;2023-11-21T11:42:57;17.70;;;11.90;;
64667;SDS011;51077;42.716;23.344;2023-11-21T11:45:32;15.70;;;11.95;;
64667;SDS011;51077;42.716;23.344;2023-11-21T11:47:59;17.02;;;11.65;;
64667;SDS011;51077;42.716;23.344;2023-11-21T11:50:26;19.75;;;12.25;;
64667;SDS011;51077;42.716;23.344;2023-11-21T11:52:52;20.73;;;12.90;;
64667;SDS011;51077;42.716;23.344;2023-11-21T11:55:23;16.88;;;12.38;;
64667;SDS011;51077;42.716;23.344;2023-11-21T11:57:53;19.02;;;11.43;;
64667;SDS011;51077;42.716;23.344;2023-11-21T12:03:08;18.75;;;11.68;;
64667;SDS011;51077;42.716;23.344;2023-11-21T12:05:35;17.95;;;11.85;;
64667;SDS011;51077;42.716;23.344;2023-11-21T12:08:03;20.45;;;12.18;;
64667;SDS011;51077;42.716;23.344;2023-11-21T12:10:32;18.83;;;12.73;;
64667;SDS011;51077;42.716;23.344;2023-11-21T12:15:26;16.95;;;11.57;;
64667;SDS011;51077;42.716;23.344;2023-11-21T12:17:55;16.83;;;11.52;;
64667;SDS011;51077;42.716;23.344;2023-11-21T12:20:24;20.00;;;12.27;;
64667;SDS011;51077;42.716;23.344;2023-11-21T12:22:50;18.73;;;12.27;;
64667;SDS011;51077;42.716;23.344;2023-11-21T12:25:18;19.85;;;11.77;;
64667;SDS011;51077;42.716;23.344;2023-11-21T12:27:51;19.35;;;11.15;;
64667;SDS011;51077;42.716;23.344;2023-11-21T12:30:18;16.95;;;11.70;;
64667;SDS011;51077;42.716;23.344;2023-11-21T12:32:50;18.80;;;11.57;;
64667;SDS011;51077;42.716;23.344;2023-11-21T12:35:17;19.60;;;12.18;;
64667;SDS011;51077;42.716;23.344;2023-11-21T12:37:47;20.35;;;11.88;;
64667;SDS011;51077;42.716;23.344;2023-11-21T12:40:14;18.40;;;11.20;;
64667;SDS011;51077;42.716;23.344;2023-11-21T12:43:01;16.58;;;11.05;;
64667;SDS011;51077;42.716;23.344;2023-11-21T12:45:27;20.58;;;11.98;;
64667;SDS011;51077;42.716;23.344;2023-11-21T12:48:00;16.27;;;10.90;;
64667;SDS011;51077;42.716;23.344;2023-11-21T12:50:27;16.02;;;11.10;;
64667;SDS011;51077;42.716;23.344;2023-11-21T12:52:59;19.05;;;10.73;;
64667;SDS011;51077;42.716;23.344;2023-11-21T12:55:26;16.65;;;10.90;;
64667;SDS011;51077;42.716;23.344;2023-11-21T12:57:55;16.75;;;11.00;;
64667;SDS011;51077;42.716;23.344;2023-11-21T13:00:32;16.58;;;11.05;;
64667;SDS011;51077;42.716;23.344;2023-11-21T13:03:02;16.38;;;10.60;;
64667;SDS011;51077;42.716;23.344;2023-11-21T13:05:34;16.48;;;10.43;;
64667;SDS011;51077;42.716;23.344;2023-11-21T13:08:05;16.80;;;11.05;;
64667;SDS011;51077;42.716;23.344;2023-11-21T13:10:36;16.52;;;10.27;;
64667;SDS011;51077;42.716;23.344;2023-11-21T13:13:05;14.73;;;10.30;;
64667;SDS011;51077;42.716;23.344;2023-11-21T13:15:33;15.75;;;9.35;;
64667;SDS011;51077;42.716;23.344;2023-11-21T13:18:01;14.40;;;9.25;;
64667;SDS011;51077;42.716;23.344;2023-11-21T13:20:27;16.57;;;9.63;;
64667;SDS011;51077;42.716;23.344;2023-11-21T13:22:57;16.98;;;9.90;;
64667;SDS011;51077;42.716;23.344;2023-11-21T13:25:30;12.77;;;8.93;;
64667;SDS011;51077;42.716;23.344;2023-11-21T13:27:59;13.07;;;9.00;;
64667;SDS011;51077;42.716;23.344;2023-11-21T13:30:25;13.68;;;9.15;;
64667;SDS011;51077;42.716;23.344;2023-11-21T13:33:00;14.15;;;9.27;;
64667;SDS011;51077;42.716;23.344;2023-11-21T13:35:30;16.05;;;8.68;;
64667;SDS011;51077;42.716;23.344;2023-11-21T13:38:10;14.13;;;8.27;;
64667;SDS011;51077;42.716;23.344;2023-11-21T13:40:37;14.73;;;9.15;;
64667;SDS011;51077;42.716;23.344;2023-11-21T13:43:12;12.60;;;8.38;;
64667;SDS011;51077;42.716;23.344;2023-11-21T13:45:42;13.95;;;8.45;;
64667;SDS011;51077;42.716;23.344;2023-11-21T13:48:09;12.55;;;8.15;;
64667;SDS011;51077;42.716;23.344;2023-11-21T13:50:39;14.98;;;8.60;;
64667;SDS011;51077;42.716;23.344;2023-11-21T13:53:13;12.48;;;8.75;;
64667;SDS011;51077;42.716;23.344;2023-11-21T13:55:50;14.82;;;8.88;;
64667;SDS011;51077;42.716;23.344;2023-11-21T13:58:19;14.10;;;8.63;;
64667;SDS011;51077;42.716;23.344;2023-11-21T14:00:49;13.43;;;9.10;;
64667;SDS011;51077;42.716;23.344;2023-11-21T14:03:24;17.98;;;9.48;;
64667;SDS011;51077;42.716;23.344;2023-11-21T14:05:57;14.18;;;9.30;;
64667;SDS011;51077;42.716;23.344;2023-11-21T14:08:25;12.27;;;8.32;;
64667;SDS011;51077;42.716;23.344;2023-11-21T14:10:57;13.65;;;8.73;;
64667;SDS011;51077;42.716;23.344;2023-11-21T14:13:24;14.05;;;8.73;;
64667;SDS011;51077;42.716;23.344;2023-11-21T14:15:53;13.52;;;8.13;;
64667;SDS011;51077;42.716;23.344;2023-11-21T14:18:27;15.10;;;8.88;;
64667;SDS011;51077;42.716;23.344;2023-11-21T14:21:03;11.95;;;8.52;;
64667;SDS011;51077;42.716;23.344;2023-11-21T14:23:33;18.58;;;9.25;;
64667;SDS011;51077;42.716;23.344;2023-11-21T14:26:01;15.00;;;9.73;;
64667;SDS011;51077;42.716;23.344;2023-11-21T14:28:26;13.53;;;8.37;;
64667;SDS011;51077;42.716;23.344;2023-11-21T14:30:52;15.67;;;9.27;;
64667;SDS011;51077;42.716;23.344;2023-11-21T14:33:17;16.37;;;9.03;;
64667;SDS011;51077;42.716;23.344;2023-11-21T14:35:49;13.57;;;9.25;;
64667;SDS011;51077;42.716;23.344;2023-11-21T14:38:15;17.75;;;9.23;;